Terminal Aerodrome Forecast
Issued by NWS

Home | Current Version | Previous Version | Text Only | Print | Product List | Glossary Off
Versions: 1 2 3 4 5 6 7 8 9 10 11 12 13 14 15 16 17 18 19 20 21 22 23 24 25 26 27 28 29 30 31 32 33 34 35 36 37 38 39

000
FTUS43 KLOT 271039 AAB
TAFORD
TAF AMD
KORD 271039Z 2711/2812 01012KT 2SM -SHSN OVC025
     FM271130 01012KT P6SM -SHSN BKN025 OVC040
     FM271300 01014G20KT P6SM BKN040
     FM271800 01011KT P6SM BKN040
     FM272100 04012KT P6SM SCT040
     FM280200 05007KT P6SM BKN035=

USA.gov is the U.S. government's official web portal to all federal, state and local government web resources and services.